sensor_id;sensor_type;location;lat;lon;timestamp;temperature;humidity
1011;DHT22;494;48.744;10.106;2022-11-14T00:01:29;8.30;50.00
1011;DHT22;494;48.744;10.106;2022-11-14T00:03:58;8.30;50.10
1011;DHT22;494;48.744;10.106;2022-11-14T00:06:27;8.30;50.00
1011;DHT22;494;48.744;10.106;2022-11-14T00:08:57;8.20;49.90
1011;DHT22;494;48.744;10.106;2022-11-14T00:11:26;8.30;49.90
1011;DHT22;494;48.744;10.106;2022-11-14T00:13:54;8.20;49.70
1011;DHT22;494;48.744;10.106;2022-11-14T00:16:23;8.10;50.60
1011;DHT22;494;48.744;10.106;2022-11-14T00:18:51;8.00;50.60
1011;DHT22;494;48.744;10.106;2022-11-14T00:21:20;7.90;50.90
1011;DHT22;494;48.744;10.106;2022-11-14T00:23:49;7.80;51.30
1011;DHT22;494;48.744;10.106;2022-11-14T00:26:19;7.70;51.30
1011;DHT22;494;48.744;10.106;2022-11-14T00:28:47;7.60;51.10
1011;DHT22;494;48.744;10.106;2022-11-14T00:31:16;7.60;51.30
1011;DHT22;494;48.744;10.106;2022-11-14T00:33:44;7.60;51.10
1011;DHT22;494;48.744;10.106;2022-11-14T00:36:13;7.70;51.10
1011;DHT22;494;48.744;10.106;2022-11-14T00:38:41;7.70;51.00
1011;DHT22;494;48.744;10.106;2022-11-14T00:41:10;7.70;50.20
1011;DHT22;494;48.744;10.106;2022-11-14T00:43:40;7.80;50.10
1011;DHT22;494;48.744;10.106;2022-11-14T00:46:09;7.80;49.50
1011;DHT22;494;48.744;10.106;2022-11-14T00:48:37;7.80;49.30
1011;DHT22;494;48.744;10.106;2022-11-14T00:51:06;7.80;48.80
1011;DHT22;494;48.744;10.106;2022-11-14T00:53:35;7.80;48.30
1011;DHT22;494;48.744;10.106;2022-11-14T00:56:05;7.80;48.00
1011;DHT22;494;48.744;10.106;2022-11-14T00:58:33;7.70;47.90
1011;DHT22;494;48.744;10.106;2022-11-14T01:01:04;7.70;48.10
1011;DHT22;494;48.744;10.106;2022-11-14T01:03:33;7.70;48.20
1011;DHT22;494;48.744;10.106;2022-11-14T01:06:03;7.60;48.20
1011;DHT22;494;48.744;10.106;2022-11-14T01:08:33;7.50;48.50
1011;DHT22;494;48.744;10.106;2022-11-14T01:11:08;7.30;49.00
1011;DHT22;494;48.744;10.106;2022-11-14T01:13:38;7.40;49.20
1011;DHT22;494;48.744;10.106;2022-11-14T01:16:08;7.40;49.10
1011;DHT22;494;48.744;10.106;2022-11-14T01:18:39;7.50;49.40
1011;DHT22;494;48.744;10.106;2022-11-14T01:21:10;7.60;49.00
1011;DHT22;494;48.744;10.106;2022-11-14T01:23:39;7.60;48.90
1011;DHT22;494;48.744;10.106;2022-11-14T01:26:10;7.60;48.70
1011;DHT22;494;48.744;10.106;2022-11-14T01:28:40;7.60;48.60
1011;DHT22;494;48.744;10.106;2022-11-14T01:31:14;7.60;48.40
1011;DHT22;494;48.744;10.106;2022-11-14T01:33:46;7.60;48.50
1011;DHT22;494;48.744;10.106;2022-11-14T01:36:16;7.50;48.40
1011;DHT22;494;48.744;10.106;2022-11-14T01:38:45;7.50;48.60
1011;DHT22;494;48.744;10.106;2022-11-14T01:41:15;7.50;48.60
1011;DHT22;494;48.744;10.106;2022-11-14T01:43:43;7.40;48.50
1011;DHT22;494;48.744;10.106;2022-11-14T01:46:14;7.40;48.40
1011;DHT22;494;48.744;10.106;2022-11-14T01:48:51;7.50;48.70
1011;DHT22;494;48.744;10.106;2022-11-14T01:51:26;7.40;48.70
1011;DHT22;494;48.744;10.106;2022-11-14T01:54:00;7.40;48.70
1011;DHT22;494;48.744;10.106;2022-11-14T01:56:34;7.40;48.70
1011;DHT22;494;48.744;10.106;2022-11-14T01:59:11;7.20;49.00
1011;DHT22;494;48.744;10.106;2022-11-14T02:01:48;7.40;49.20
1011;DHT22;494;48.744;10.106;2022-11-14T02:04:21;7.40;49.00
1011;DHT22;494;48.744;10.106;2022-11-14T02:06:55;7.50;49.00
1011;DHT22;494;48.744;10.106;2022-11-14T02:09:27;7.50;49.10
1011;DHT22;494;48.744;10.106;2022-11-14T02:12:03;7.50;49.00
1011;DHT22;494;48.744;10.106;2022-11-14T02:14:36;7.60;49.00
1011;DHT22;494;48.744;10.106;2022-11-14T02:17:07;7.60;48.80
1011;DHT22;494;48.744;10.106;2022-11-14T02:20:05;7.60;48.80
1011;DHT22;494;48.744;10.106;2022-11-14T02:22:42;7.40;49.10
1011;DHT22;494;48.744;10.106;2022-11-14T02:25:12;7.50;49.10
1011;DHT22;494;48.744;10.106;2022-11-14T02:27:45;7.60;48.90
1011;DHT22;494;48.744;10.106;2022-11-14T02:30:17;7.60;48.50
1011;DHT22;494;48.744;10.106;2022-11-14T02:32:47;7.70;48.50
1011;DHT22;494;48.744;10.106;2022-11-14T02:35:37;7.70;48.20
1011;DHT22;494;48.744;10.106;2022-11-14T02:38:06;7.80;48.10
1011;DHT22;494;48.744;10.106;2022-11-14T02:40:35;7.70;48.00
1011;DHT22;494;48.744;10.106;2022-11-14T02:43:04;7.80;48.10
1011;DHT22;494;48.744;10.106;2022-11-14T02:45:33;7.90;48.10
1011;DHT22;494;48.744;10.106;2022-11-14T02:48:02;8.20;47.80
1011;DHT22;494;48.744;10.106;2022-11-14T02:50:31;8.00;47.30
1011;DHT22;494;48.744;10.106;2022-11-14T02:53:01;8.10;46.60
1011;DHT22;494;48.744;10.106;2022-11-14T02:55:30;7.90;46.70
1011;DHT22;494;48.744;10.106;2022-11-14T02:57:59;7.80;47.10
1011;DHT22;494;48.744;10.106;2022-11-14T03:00:27;7.80;47.30
1011;DHT22;494;48.744;10.106;2022-11-14T03:02:56;7.80;47.50
1011;DHT22;494;48.744;10.106;2022-11-14T03:05:25;7.70;47.60
1011;DHT22;494;48.744;10.106;2022-11-14T03:07:53;7.60;47.90
1011;DHT22;494;48.744;10.106;2022-11-14T03:10:24;7.60;48.30
1011;DHT22;494;48.744;10.106;2022-11-14T03:12:53;7.60;48.60
1011;DHT22;494;48.744;10.106;2022-11-14T03:15:23;7.60;49.00
1011;DHT22;494;48.744;10.106;2022-11-14T03:17:51;7.50;49.30
1011;DHT22;494;48.744;10.106;2022-11-14T03:20:20;7.60;49.30
1011;DHT22;494;48.744;10.106;2022-11-14T03:22:49;7.70;49.20
1011;DHT22;494;48.744;10.106;2022-11-14T03:25:18;7.80;49.10
1011;DHT22;494;48.744;10.106;2022-11-14T03:27:48;7.80;49.00
1011;DHT22;494;48.744;10.106;2022-11-14T03:30:17;7.80;49.00
1011;DHT22;494;48.744;10.106;2022-11-14T03:32:46;7.80;48.90
1011;DHT22;494;48.744;10.106;2022-11-14T03:35:14;7.90;48.90
1011;DHT22;494;48.744;10.106;2022-11-14T03:37:43;7.90;48.80
1011;DHT22;494;48.744;10.106;2022-11-14T03:40:12;7.90;48.80
1011;DHT22;494;48.744;10.106;2022-11-14T03:42:41;7.90;48.90
1011;DHT22;494;48.744;10.106;2022-11-14T03:45:11;7.90;48.90
1011;DHT22;494;48.744;10.106;2022-11-14T03:47:42;7.80;49.50
1011;DHT22;494;48.744;10.106;2022-11-14T03:50:10;7.70;50.20
1011;DHT22;494;48.744;10.106;2022-11-14T03:52:39;7.60;50.60
1011;DHT22;494;48.744;10.106;2022-11-14T03:55:08;7.60;50.80
1011;DHT22;494;48.744;10.106;2022-11-14T03:57:37;7.60;51.00
1011;DHT22;494;48.744;10.106;2022-11-14T04:00:06;7.70;51.20
1011;DHT22;494;48.744;10.106;2022-11-14T04:02:38;7.70;51.20
1011;DHT22;494;48.744;10.106;2022-11-14T04:05:07;7.80;51.40
1011;DHT22;494;48.744;10.106;2022-11-14T04:07:37;7.80;51.00
1011;DHT22;494;48.744;10.106;2022-11-14T04:10:06;7.90;51.00
1011;DHT22;494;48.744;10.106;2022-11-14T04:12:36;7.90;50.80
1011;DHT22;494;48.744;10.106;2022-11-14T04:15:05;7.90;50.90
1011;DHT22;494;48.744;10.106;2022-11-14T04:17:35;7.90;50.70
1011;DHT22;494;48.744;10.106;2022-11-14T04:20:08;8.00;50.60
1011;DHT22;494;48.744;10.106;2022-11-14T04:22:38;8.10;50.30
1011;DHT22;494;48.744;10.106;2022-11-14T04:25:08;8.20;49.80
1011;DHT22;494;48.744;10.106;2022-11-14T04:27:37;8.10;49.50
1011;DHT22;494;48.744;10.106;2022-11-14T04:30:07;8.20;50.10
1011;DHT22;494;48.744;10.106;2022-11-14T04:32:36;8.30;49.30
1011;DHT22;494;48.744;10.106;2022-11-14T04:35:07;8.30;49.30
1011;DHT22;494;48.744;10.106;2022-11-14T04:37:36;8.30;48.90
1011;DHT22;494;48.744;10.106;2022-11-14T04:40:06;8.40;48.80
1011;DHT22;494;48.744;10.106;2022-11-14T04:42:36;8.40;48.40
1011;DHT22;494;48.744;10.106;2022-11-14T04:45:05;8.50;48.50
1011;DHT22;494;48.744;10.106;2022-11-14T04:47:35;8.50;48.00
1011;DHT22;494;48.744;10.106;2022-11-14T04:50:08;8.50;48.20
1011;DHT22;494;48.744;10.106;2022-11-14T04:52:37;8.50;48.10
1011;DHT22;494;48.744;10.106;2022-11-14T04:55:06;8.60;47.90
1011;DHT22;494;48.744;10.106;2022-11-14T04:57:35;8.50;47.70
1011;DHT22;494;48.744;10.106;2022-11-14T05:00:05;8.60;47.80
1011;DHT22;494;48.744;10.106;2022-11-14T05:02:34;8.60;47.60
1011;DHT22;494;48.744;10.106;2022-11-14T05:05:03;8.70;47.60
1011;DHT22;494;48.744;10.106;2022-11-14T05:07:33;8.70;47.00
1011;DHT22;494;48.744;10.106;2022-11-14T05:10:02;8.60;47.10
1011;DHT22;494;48.744;10.106;2022-11-14T05:12:32;8.60;47.10
1011;DHT22;494;48.744;10.106;2022-11-14T05:15:00;8.60;46.90
1011;DHT22;494;48.744;10.106;2022-11-14T05:17:29;8.60;46.80
1011;DHT22;494;48.744;10.106;2022-11-14T05:19:58;8.60;47.00
1011;DHT22;494;48.744;10.106;2022-11-14T05:22:26;8.60;47.00
1011;DHT22;494;48.744;10.106;2022-11-14T05:24:57;8.60;47.10
1011;DHT22;494;48.744;10.106;2022-11-14T05:27:25;8.60;47.10
1011;DHT22;494;48.744;10.106;2022-11-14T05:29:54;8.50;47.30
1011;DHT22;494;48.744;10.106;2022-11-14T05:32:22;8.50;47.40
1011;DHT22;494;48.744;10.106;2022-11-14T05:34:51;8.50;47.60
1011;DHT22;494;48.744;10.106;2022-11-14T05:37:20;8.50;47.70
1011;DHT22;494;48.744;10.106;2022-11-14T05:39:48;8.40;47.90
1011;DHT22;494;48.744;10.106;2022-11-14T05:42:18;8.40;48.10
1011;DHT22;494;48.744;10.106;2022-11-14T05:44:47;8.40;48.40
1011;DHT22;494;48.744;10.106;2022-11-14T05:47:16;8.30;48.80
1011;DHT22;494;48.744;10.106;2022-11-14T05:49:44;8.30;49.10
1011;DHT22;494;48.744;10.106;2022-11-14T05:52:13;8.30;49.10
1011;DHT22;494;48.744;10.106;2022-11-14T05:54:42;8.40;49.10
1011;DHT22;494;48.744;10.106;2022-11-14T05:57:10;8.40;49.10
1011;DHT22;494;48.744;10.106;2022-11-14T05:59:40;8.40;48.90
1011;DHT22;494;48.744;10.106;2022-11-14T06:02:09;8.50;48.80
1011;DHT22;494;48.744;10.106;2022-11-14T06:04:38;8.50;48.70
1011;DHT22;494;48.744;10.106;2022-11-14T06:07:06;8.50;48.80
1011;DHT22;494;48.744;10.106;2022-11-14T06:09:35;8.40;48.90
1011;DHT22;494;48.744;10.106;2022-11-14T06:12:04;8.30;49.40
1011;DHT22;494;48.744;10.106;2022-11-14T06:14:33;8.30;49.60
1011;DHT22;494;48.744;10.106;2022-11-14T06:17:03;8.40;49.60
1011;DHT22;494;48.744;10.106;2022-11-14T06:19:32;8.40;49.70
1011;DHT22;494;48.744;10.106;2022-11-14T06:22:01;8.50;49.60
1011;DHT22;494;48.744;10.106;2022-11-14T06:24:30;8.60;49.30
1011;DHT22;494;48.744;10.106;2022-11-14T06:26:59;8.50;49.00
1011;DHT22;494;48.744;10.106;2022-11-14T06:29:27;8.60;48.80
1011;DHT22;494;48.744;10.106;2022-11-14T06:32:03;8.50;48.50
1011;DHT22;494;48.744;10.106;2022-11-14T06:37:03;8.40;49.30
1011;DHT22;494;48.744;10.106;2022-11-14T06:39:32;8.30;49.60
1011;DHT22;494;48.744;10.106;2022-11-14T06:42:01;8.30;50.00
1011;DHT22;494;48.744;10.106;2022-11-14T06:44:30;8.10;50.10
1011;DHT22;494;48.744;10.106;2022-11-14T06:46:58;8.00;50.80
1011;DHT22;494;48.744;10.106;2022-11-14T06:49:29;8.00;51.30
1011;DHT22;494;48.744;10.106;2022-11-14T06:52:03;8.00;51.20
1011;DHT22;494;48.744;10.106;2022-11-14T06:54:32;7.90;52.20
1011;DHT22;494;48.744;10.106;2022-11-14T06:57:01;7.90;52.30
1011;DHT22;494;48.744;10.106;2022-11-14T06:59:29;8.00;52.20
1011;DHT22;494;48.744;10.106;2022-11-14T07:01:58;8.00;52.00
1011;DHT22;494;48.744;10.106;2022-11-14T07:04:28;8.10;52.10
1011;DHT22;494;48.744;10.106;2022-11-14T07:06:57;8.10;51.90
1011;DHT22;494;48.744;10.106;2022-11-14T07:09:26;8.10;52.10
1011;DHT22;494;48.744;10.106;2022-11-14T07:11:54;8.10;52.00
1011;DHT22;494;48.744;10.106;2022-11-14T07:14:23;8.10;52.20
1011;DHT22;494;48.744;10.106;2022-11-14T07:16:52;8.00;53.10
1011;DHT22;494;48.744;10.106;2022-11-14T07:19:20;8.10;53.50
1011;DHT22;494;48.744;10.106;2022-11-14T07:21:50;8.20;52.80
1011;DHT22;494;48.744;10.106;2022-11-14T07:24:19;8.30;52.30
1011;DHT22;494;48.744;10.106;2022-11-14T07:26:48;8.40;51.90
1011;DHT22;494;48.744;10.106;2022-11-14T07:29:17;8.50;52.40
1011;DHT22;494;48.744;10.106;2022-11-14T07:31:45;8.50;51.50
1011;DHT22;494;48.744;10.106;2022-11-14T07:34:14;8.50;51.30
1011;DHT22;494;48.744;10.106;2022-11-14T07:36:43;8.70;51.30
1011;DHT22;494;48.744;10.106;2022-11-14T07:39:13;8.80;50.60
1011;DHT22;494;48.744;10.106;2022-11-14T07:41:42;8.90;51.00
1011;DHT22;494;48.744;10.106;2022-11-14T07:44:11;9.10;50.40
1011;DHT22;494;48.744;10.106;2022-11-14T07:46:40;9.20;49.80
1011;DHT22;494;48.744;10.106;2022-11-14T07:49:08;9.40;49.40
1011;DHT22;494;48.744;10.106;2022-11-14T07:51:37;9.50;48.60
1011;DHT22;494;48.744;10.106;2022-11-14T07:54:08;9.60;48.10
1011;DHT22;494;48.744;10.106;2022-11-14T07:56:40;9.70;47.40
1011;DHT22;494;48.744;10.106;2022-11-14T07:59:09;9.70;46.10
1011;DHT22;494;48.744;10.106;2022-11-14T08:01:38;9.60;46.40
1011;DHT22;494;48.744;10.106;2022-11-14T08:04:07;9.60;46.70
1011;DHT22;494;48.744;10.106;2022-11-14T08:06:36;9.70;46.80
1011;DHT22;494;48.744;10.106;2022-11-14T08:09:04;9.80;46.60
1011;DHT22;494;48.744;10.106;2022-11-14T08:11:33;9.80;46.60
1011;DHT22;494;48.744;10.106;2022-11-14T08:14:19;9.80;46.50
1011;DHT22;494;48.744;10.106;2022-11-14T08:17:00;9.90;46.50
1011;DHT22;494;48.744;10.106;2022-11-14T08:19:29;10.00;46.00
1011;DHT22;494;48.744;10.106;2022-11-14T08:21:57;10.00;45.90
1011;DHT22;494;48.744;10.106;2022-11-14T08:24:26;10.10;45.70
1011;DHT22;494;48.744;10.106;2022-11-14T08:26:55;10.20;45.40
1011;DHT22;494;48.744;10.106;2022-11-14T08:29:25;10.30;45.20
1011;DHT22;494;48.744;10.106;2022-11-14T08:31:54;10.40;44.50
1011;DHT22;494;48.744;10.106;2022-11-14T08:34:26;10.30;44.30
1011;DHT22;494;48.744;10.106;2022-11-14T08:36:55;10.40;44.60
1011;DHT22;494;48.744;10.106;2022-11-14T08:39:24;10.40;44.40
1011;DHT22;494;48.744;10.106;2022-11-14T08:41:53;10.40;44.10
1011;DHT22;494;48.744;10.106;2022-11-14T08:44:21;10.50;44.20
1011;DHT22;494;48.744;10.106;2022-11-14T08:46:51;10.50;44.30
1011;DHT22;494;48.744;10.106;2022-11-14T08:49:20;10.50;44.10
1011;DHT22;494;48.744;10.106;2022-11-14T08:51:51;10.50;44.10
1011;DHT22;494;48.744;10.106;2022-11-14T08:54:20;10.40;44.00
1011;DHT22;494;48.744;10.106;2022-11-14T08:56:48;10.50;45.00
1011;DHT22;494;48.744;10.106;2022-11-14T08:59:18;10.50;44.30
1011;DHT22;494;48.744;10.106;2022-11-14T09:01:47;10.50;44.00
1011;DHT22;494;48.744;10.106;2022-11-14T09:04:17;10.40;43.70
1011;DHT22;494;48.744;10.106;2022-11-14T09:06:46;10.30;44.30
1011;DHT22;494;48.744;10.106;2022-11-14T09:09:14;10.30;44.40
1011;DHT22;494;48.744;10.106;2022-11-14T09:11:43;10.30;44.60
1011;DHT22;494;48.744;10.106;2022-11-14T09:14:12;10.30;44.80
1011;DHT22;494;48.744;10.106;2022-11-14T09:16:40;10.30;44.60
1011;DHT22;494;48.744;10.106;2022-11-14T09:19:09;10.20;44.70
1011;DHT22;494;48.744;10.106;2022-11-14T09:21:39;10.30;44.90
1011;DHT22;494;48.744;10.106;2022-11-14T09:24:08;10.40;44.80
1011;DHT22;494;48.744;10.106;2022-11-14T09:26:37;10.50;44.70
1011;DHT22;494;48.744;10.106;2022-11-14T09:29:05;10.70;44.20
1011;DHT22;494;48.744;10.106;2022-11-14T09:31:34;10.90;43.80
1011;DHT22;494;48.744;10.106;2022-11-14T09:34:03;11.10;42.90
1011;DHT22;494;48.744;10.106;2022-11-14T09:36:31;11.20;42.30
1011;DHT22;494;48.744;10.106;2022-11-14T09:39:02;11.50;41.50
1011;DHT22;494;48.744;10.106;2022-11-14T09:41:43;11.60;40.00
1011;DHT22;494;48.744;10.106;2022-11-14T09:44:40;11.60;40.00
1011;DHT22;494;48.744;10.106;2022-11-14T09:47:19;11.70;39.50
1011;DHT22;494;48.744;10.106;2022-11-14T09:49:54;11.90;38.90
1011;DHT22;494;48.744;10.106;2022-11-14T09:52:34;12.00;37.60
1011;DHT22;494;48.744;10.106;2022-11-14T09:55:12;11.90;37.90
1011;DHT22;494;48.744;10.106;2022-11-14T09:57:45;12.20;38.20
1011;DHT22;494;48.744;10.106;2022-11-14T10:00:16;12.90;37.20
1011;DHT22;494;48.744;10.106;2022-11-14T10:03:02;13.90;32.80
1011;DHT22;494;48.744;10.106;2022-11-14T10:05:54;15.20;28.00
1011;DHT22;494;48.744;10.106;2022-11-14T10:08:47;17.00;22.20
1011;DHT22;494;48.744;10.106;2022-11-14T10:11:30;18.10;18.70
1011;DHT22;494;48.744;10.106;2022-11-14T10:14:30;17.50;19.10
1011;DHT22;494;48.744;10.106;2022-11-14T10:17:34;16.50;20.40
1011;DHT22;494;48.744;10.106;2022-11-14T10:20:18;15.90;22.80
1011;DHT22;494;48.744;10.106;2022-11-14T10:23:04;15.30;24.50
1011;DHT22;494;48.744;10.106;2022-11-14T10:25:49;15.30;24.60
1011;DHT22;494;48.744;10.106;2022-11-14T10:28:41;16.30;23.10
1011;DHT22;494;48.744;10.106;2022-11-14T10:31:24;18.10;18.40
1011;DHT22;494;48.744;10.106;2022-11-14T10:34:05;19.30;16.30
1011;DHT22;494;48.744;10.106;2022-11-14T10:36:47;19.50;15.60
1011;DHT22;494;48.744;10.106;2022-11-14T10:39:25;18.90;16.60
1011;DHT22;494;48.744;10.106;2022-11-14T10:42:01;18.80;16.90
1011;DHT22;494;48.744;10.106;2022-11-14T10:44:41;18.90;17.20
1011;DHT22;494;48.744;10.106;2022-11-14T10:47:20;19.20;15.70
1011;DHT22;494;48.744;10.106;2022-11-14T10:49:54;18.30;17.30
1011;DHT22;494;48.744;10.106;2022-11-14T10:52:43;17.10;19.40
1011;DHT22;494;48.744;10.106;2022-11-14T10:55:15;16.10;22.10
1011;DHT22;494;48.744;10.106;2022-11-14T10:57:45;15.40;23.70
1011;DHT22;494;48.744;10.106;2022-11-14T11:00:17;14.90;25.50
1011;DHT22;494;48.744;10.106;2022-11-14T11:02:50;14.80;26.20
1011;DHT22;494;48.744;10.106;2022-11-14T11:05:22;15.00;25.40
1011;DHT22;494;48.744;10.106;2022-11-14T11:07:52;15.70;23.50
1011;DHT22;494;48.744;10.106;2022-11-14T11:10:58;16.10;22.00
1011;DHT22;494;48.744;10.106;2022-11-14T11:13:51;16.60;20.60
1011;DHT22;494;48.744;10.106;2022-11-14T11:16:25;16.60;20.90
1011;DHT22;494;48.744;10.106;2022-11-14T11:19:13;16.70;20.40
1011;DHT22;494;48.744;10.106;2022-11-14T11:21:51;16.80;20.80
1011;DHT22;494;48.744;10.106;2022-11-14T11:24:30;17.10;19.60
1011;DHT22;494;48.744;10.106;2022-11-14T11:27:18;17.20;20.00
1011;DHT22;494;48.744;10.106;2022-11-14T11:30:17;17.40;19.50
1011;DHT22;494;48.744;10.106;2022-11-14T11:32:50;17.60;19.00
1011;DHT22;494;48.744;10.106;2022-11-14T11:35:19;17.70;19.50
1011;DHT22;494;48.744;10.106;2022-11-14T11:37:51;17.60;19.50
1011;DHT22;494;48.744;10.106;2022-11-14T11:40:24;18.30;18.30
1011;DHT22;494;48.744;10.106;2022-11-14T11:42:57;19.00;17.20
1011;DHT22;494;48.744;10.106;2022-11-14T11:45:52;19.50;16.00
1011;DHT22;494;48.744;10.106;2022-11-14T11:48:30;20.70;14.30
1011;DHT22;494;48.744;10.106;2022-11-14T11:51:06;21.40;12.90
1011;DHT22;494;48.744;10.106;2022-11-14T11:53:42;21.80;12.50
1011;DHT22;494;48.744;10.106;2022-11-14T11:56:16;22.40;11.50
1011;DHT22;494;48.744;10.106;2022-11-14T11:58:49;22.80;11.30
1011;DHT22;494;48.744;10.106;2022-11-14T12:01:20;23.50;10.50
1011;DHT22;494;48.744;10.106;2022-11-14T12:03:51;23.70;9.40
1011;DHT22;494;48.744;10.106;2022-11-14T12:06:23;24.00;9.20
1011;DHT22;494;48.744;10.106;2022-11-14T12:09:05;24.30;8.70
1011;DHT22;494;48.744;10.106;2022-11-14T12:11:44;24.50;8.50
1011;DHT22;494;48.744;10.106;2022-11-14T12:14:44;24.60;8.30
1011;DHT22;494;48.744;10.106;2022-11-14T12:24:02;21.30;13.20
1011;DHT22;494;48.744;10.106;2022-11-14T12:26:55;19.60;16.00
1011;DHT22;494;48.744;10.106;2022-11-14T12:29:51;18.10;18.80
1011;DHT22;494;48.744;10.106;2022-11-14T12:32:32;16.90;21.60
1011;DHT22;494;48.744;10.106;2022-11-14T12:35:14;16.10;23.80
1011;DHT22;494;48.744;10.106;2022-11-14T12:37:49;15.60;26.60
1011;DHT22;494;48.744;10.106;2022-11-14T12:40:29;15.00;28.70
1011;DHT22;494;48.744;10.106;2022-11-14T12:43:01;14.60;30.30
1011;DHT22;494;48.744;10.106;2022-11-14T12:45:55;14.40;31.30
1011;DHT22;494;48.744;10.106;2022-11-14T12:48:33;14.30;32.00
1011;DHT22;494;48.744;10.106;2022-11-14T12:51:08;14.20;32.40
1011;DHT22;494;48.744;10.106;2022-11-14T12:54:44;14.20;33.20
1011;DHT22;494;48.744;10.106;2022-11-14T12:57:21;14.00;34.20
1011;DHT22;494;48.744;10.106;2022-11-14T13:00:14;13.90;34.90
1011;DHT22;494;48.744;10.106;2022-11-14T13:03:18;13.80;35.40
1011;DHT22;494;48.744;10.106;2022-11-14T13:05:57;13.90;35.80
1011;DHT22;494;48.744;10.106;2022-11-14T13:08:51;13.90;35.50
1011;DHT22;494;48.744;10.106;2022-11-14T13:11:36;14.00;35.20
1011;DHT22;494;48.744;10.106;2022-11-14T13:14:27;14.10;35.20
1011;DHT22;494;48.744;10.106;2022-11-14T13:17:25;14.10;35.20
1011;DHT22;494;48.744;10.106;2022-11-14T13:20:29;14.10;35.20
1011;DHT22;494;48.744;10.106;2022-11-14T13:23:54;14.00;35.40
1011;DHT22;494;48.744;10.106;2022-11-14T13:26:39;14.00;35.50
1011;DHT22;494;48.744;10.106;2022-11-14T13:29:45;13.90;35.60
1011;DHT22;494;48.744;10.106;2022-11-14T13:35:44;13.30;36.60
1011;DHT22;494;48.744;10.106;2022-11-14T13:42:11;13.60;36.90
1011;DHT22;494;48.744;10.106;2022-11-14T13:45:31;13.70;36.80
1011;DHT22;494;48.744;10.106;2022-11-14T13:51:31;13.80;36.30
1011;DHT22;494;48.744;10.106;2022-11-14T13:54:11;13.90;36.10
1011;DHT22;494;48.744;10.106;2022-11-14T13:56:52;14.00;35.70
1011;DHT22;494;48.744;10.106;2022-11-14T13:59:47;14.10;35.50
1011;DHT22;494;48.744;10.106;2022-11-14T14:02:47;14.20;35.20
1011;DHT22;494;48.744;10.106;2022-11-14T14:05:31;14.10;35.10
1011;DHT22;494;48.744;10.106;2022-11-14T14:08:17;14.20;35.20
1011;DHT22;494;48.744;10.106;2022-11-14T14:11:15;14.60;33.60
1011;DHT22;494;48.744;10.106;2022-11-14T14:14:01;15.00;32.00
1011;DHT22;494;48.744;10.106;2022-11-14T14:16:45;15.10;31.00
1011;DHT22;494;48.744;10.106;2022-11-14T14:19:25;15.00;31.00
1011;DHT22;494;48.744;10.106;2022-11-14T14:22:08;14.80;31.40
1011;DHT22;494;48.744;10.106;2022-11-14T14:24:50;14.50;32.40
1011;DHT22;494;48.744;10.106;2022-11-14T14:27:28;14.30;33.20
1011;DHT22;494;48.744;10.106;2022-11-14T14:30:08;14.10;34.00
1011;DHT22;494;48.744;10.106;2022-11-14T14:32:40;13.90;34.60
1011;DHT22;494;48.744;10.106;2022-11-14T14:35:21;13.70;35.30
1011;DHT22;494;48.744;10.106;2022-11-14T14:37:52;13.60;35.90
1011;DHT22;494;48.744;10.106;2022-11-14T14:40:24;13.50;36.40
1011;DHT22;494;48.744;10.106;2022-11-14T14:42:55;13.40;37.00
1011;DHT22;494;48.744;10.106;2022-11-14T14:45:26;13.30;37.30
1011;DHT22;494;48.744;10.106;2022-11-14T14:48:03;13.40;37.30
1011;DHT22;494;48.744;10.106;2022-11-14T14:50:39;13.40;37.30
1011;DHT22;494;48.744;10.106;2022-11-14T14:53:20;13.40;37.20
1011;DHT22;494;48.744;10.106;2022-11-14T14:55:52;13.40;37.10
1011;DHT22;494;48.744;10.106;2022-11-14T14:58:24;13.40;37.10
1011;DHT22;494;48.744;10.106;2022-11-14T15:00:57;13.30;37.30
1011;DHT22;494;48.744;10.106;2022-11-14T15:03:32;13.30;37.50
1011;DHT22;494;48.744;10.106;2022-11-14T15:06:16;13.10;37.70
1011;DHT22;494;48.744;10.106;2022-11-14T15:09:01;13.10;38.20
1011;DHT22;494;48.744;10.106;2022-11-14T15:11:35;12.90;38.50
1011;DHT22;494;48.744;10.106;2022-11-14T15:14:12;12.90;39.00
1011;DHT22;494;48.744;10.106;2022-11-14T15:16:43;12.80;39.40
1011;DHT22;494;48.744;10.106;2022-11-14T15:19:19;12.70;39.70
1011;DHT22;494;48.744;10.106;2022-11-14T15:22:04;12.80;39.80
1011;DHT22;494;48.744;10.106;2022-11-14T15:27:51;12.70;40.40
1011;DHT22;494;48.744;10.106;2022-11-14T15:30:27;12.50;40.70
1011;DHT22;494;48.744;10.106;2022-11-14T15:32:59;12.50;40.90
1011;DHT22;494;48.744;10.106;2022-11-14T15:35:32;12.50;40.90
1011;DHT22;494;48.744;10.106;2022-11-14T15:38:04;12.50;40.90
1011;DHT22;494;48.744;10.106;2022-11-14T15:41:16;12.50;41.20
1011;DHT22;494;48.744;10.106;2022-11-14T15:43:49;12.30;41.60
1011;DHT22;494;48.744;10.106;2022-11-14T15:46:27;12.30;42.00
1011;DHT22;494;48.744;10.106;2022-11-14T15:49:14;12.30;42.20
1011;DHT22;494;48.744;10.106;2022-11-14T15:51:50;12.30;42.20
1011;DHT22;494;48.744;10.106;2022-11-14T15:54:24;12.30;42.00
1011;DHT22;494;48.744;10.106;2022-11-14T15:56:56;12.40;41.70
1011;DHT22;494;48.744;10.106;2022-11-14T15:59:28;12.40;41.40
1011;DHT22;494;48.744;10.106;2022-11-14T16:02:01;12.40;41.20
1011;DHT22;494;48.744;10.106;2022-11-14T16:04:37;12.40;41.00
1011;DHT22;494;48.744;10.106;2022-11-14T16:07:15;12.40;40.80
1011;DHT22;494;48.744;10.106;2022-11-14T16:09:45;12.30;40.60
1011;DHT22;494;48.744;10.106;2022-11-14T16:12:14;12.30;40.40
1011;DHT22;494;48.744;10.106;2022-11-14T16:14:42;12.10;40.40
1011;DHT22;494;48.744;10.106;2022-11-14T16:17:13;12.10;40.60
1011;DHT22;494;48.744;10.106;2022-11-14T16:19:42;12.00;40.50
1011;DHT22;494;48.744;10.106;2022-11-14T16:22:20;12.00;40.40
1011;DHT22;494;48.744;10.106;2022-11-14T16:24:49;12.00;40.50
1011;DHT22;494;48.744;10.106;2022-11-14T16:27:19;11.90;40.70
1011;DHT22;494;48.744;10.106;2022-11-14T16:29:48;11.50;41.70
1011;DHT22;494;48.744;10.106;2022-11-14T16:32:19;11.60;42.20
1011;DHT22;494;48.744;10.106;2022-11-14T16:34:49;11.50;42.40
1011;DHT22;494;48.744;10.106;2022-11-14T16:37:17;11.50;42.50
1011;DHT22;494;48.744;10.106;2022-11-14T16:39:47;11.50;42.40
1011;DHT22;494;48.744;10.106;2022-11-14T16:42:16;11.40;42.20
1011;DHT22;494;48.744;10.106;2022-11-14T16:44:44;11.40;42.20
1011;DHT22;494;48.744;10.106;2022-11-14T16:47:17;11.30;42.20
1011;DHT22;494;48.744;10.106;2022-11-14T16:49:46;11.30;42.10
1011;DHT22;494;48.744;10.106;2022-11-14T16:52:15;11.30;42.10
1011;DHT22;494;48.744;10.106;2022-11-14T16:54:46;11.30;42.10
1011;DHT22;494;48.744;10.106;2022-11-14T16:57:15;11.20;42.20
1011;DHT22;494;48.744;10.106;2022-11-14T16:59:44;11.10;43.30
1011;DHT22;494;48.744;10.106;2022-11-14T17:02:13;11.00;43.60
1011;DHT22;494;48.744;10.106;2022-11-14T17:04:43;11.00;43.80
1011;DHT22;494;48.744;10.106;2022-11-14T17:07:12;10.90;44.50
1011;DHT22;494;48.744;10.106;2022-11-14T17:09:49;10.80;45.10
1011;DHT22;494;48.744;10.106;2022-11-14T17:12:18;10.80;45.50
1011;DHT22;494;48.744;10.106;2022-11-14T17:14:47;10.80;45.50
1011;DHT22;494;48.744;10.106;2022-11-14T17:17:15;10.80;45.60